sensor_id;sensor_type;location;lat;lon;timestamp;temperature;humidity
27697;DHT22;15105;56.514;21.002;2022-07-17T00:01:26;15.50;99.90
27697;DHT22;15105;56.514;21.002;2022-07-17T00:03:53;15.50;99.90
27697;DHT22;15105;56.514;21.002;2022-07-17T00:06:21;15.50;99.90
27697;DHT22;15105;56.514;21.002;2022-07-17T00:08:48;15.50;99.90
27697;DHT22;15105;56.514;21.002;2022-07-17T00:11:15;15.50;99.90
27697;DHT22;15105;56.514;21.002;2022-07-17T00:13:42;15.50;99.90
27697;DHT22;15105;56.514;21.002;2022-07-17T00:16:09;15.50;99.90
27697;DHT22;15105;56.514;21.002;2022-07-17T00:18:36;15.50;99.90
27697;DHT22;15105;56.514;21.002;2022-07-17T00:21:04;15.50;99.90
27697;DHT22;15105;56.514;21.002;2022-07-17T00:23:31;15.50;99.90
27697;DHT22;15105;56.514;21.002;2022-07-17T00:25:58;15.50;99.90
27697;DHT22;15105;56.514;21.002;2022-07-17T00:28:25;15.50;99.90
27697;DHT22;15105;56.514;21.002;2022-07-17T00:30:52;15.40;99.90
27697;DHT22;15105;56.514;21.002;2022-07-17T00:33:19;15.50;99.90
27697;DHT22;15105;56.514;21.002;2022-07-17T00:35:47;15.50;99.90
27697;DHT22;15105;56.514;21.002;2022-07-17T00:38:14;15.50;99.90
27697;DHT22;15105;56.514;21.002;2022-07-17T00:40:44;15.50;99.90
27697;DHT22;15105;56.514;21.002;2022-07-17T00:43:12;15.50;99.90
27697;DHT22;15105;56.514;21.002;2022-07-17T00:45:39;15.50;99.90
27697;DHT22;15105;56.514;21.002;2022-07-17T00:48:27;15.50;99.90
27697;DHT22;15105;56.514;21.002;2022-07-17T00:50:55;15.50;99.90
27697;DHT22;15105;56.514;21.002;2022-07-17T00:53:23;15.60;99.90
27697;DHT22;15105;56.514;21.002;2022-07-17T00:55:51;15.60;99.90
27697;DHT22;15105;56.514;21.002;2022-07-17T00:58:22;15.60;99.90
27697;DHT22;15105;56.514;21.002;2022-07-17T01:00:52;15.60;99.90
27697;DHT22;15105;56.514;21.002;2022-07-17T01:03:22;15.60;99.90
27697;DHT22;15105;56.514;21.002;2022-07-17T01:05:49;15.60;99.90
27697;DHT22;15105;56.514;21.002;2022-07-17T01:08:17;15.60;99.90
27697;DHT22;15105;56.514;21.002;2022-07-17T01:10:44;15.60;99.90
27697;DHT22;15105;56.514;21.002;2022-07-17T01:13:11;15.60;99.90
27697;DHT22;15105;56.514;21.002;2022-07-17T01:15:40;15.50;99.90
27697;DHT22;15105;56.514;21.002;2022-07-17T01:18:11;15.60;99.90
27697;DHT22;15105;56.514;21.002;2022-07-17T01:20:40;15.60;99.90
27697;DHT22;15105;56.514;21.002;2022-07-17T01:23:09;15.60;99.90
27697;DHT22;15105;56.514;21.002;2022-07-17T01:25:37;15.60;99.90
27697;DHT22;15105;56.514;21.002;2022-07-17T01:28:05;15.60;99.90
27697;DHT22;15105;56.514;21.002;2022-07-17T01:30:34;15.60;99.90
27697;DHT22;15105;56.514;21.002;2022-07-17T01:33:02;15.60;99.90
27697;DHT22;15105;56.514;21.002;2022-07-17T01:35:30;15.60;99.90
27697;DHT22;15105;56.514;21.002;2022-07-17T01:37:57;15.70;99.90
27697;DHT22;15105;56.514;21.002;2022-07-17T01:40:24;15.70;99.90
27697;DHT22;15105;56.514;21.002;2022-07-17T01:42:51;15.20;99.90
27697;DHT22;15105;56.514;21.002;2022-07-17T01:45:19;14.60;99.90
27697;DHT22;15105;56.514;21.002;2022-07-17T01:47:47;14.10;99.90
27697;DHT22;15105;56.514;21.002;2022-07-17T01:50:14;13.80;99.90
27697;DHT22;15105;56.514;21.002;2022-07-17T01:52:43;13.70;99.90
27697;DHT22;15105;56.514;21.002;2022-07-17T01:55:19;13.60;99.90
27697;DHT22;15105;56.514;21.002;2022-07-17T01:57:46;13.60;99.90
27697;DHT22;15105;56.514;21.002;2022-07-17T02:00:16;13.50;99.90
27697;DHT22;15105;56.514;21.002;2022-07-17T02:02:44;13.50;99.90
27697;DHT22;15105;56.514;21.002;2022-07-17T02:05:17;13.40;99.90
27697;DHT22;15105;56.514;21.002;2022-07-17T02:07:44;13.40;99.90
27697;DHT22;15105;56.514;21.002;2022-07-17T02:10:15;13.40;99.90
27697;DHT22;15105;56.514;21.002;2022-07-17T02:12:43;13.40;99.90
27697;DHT22;15105;56.514;21.002;2022-07-17T02:15:13;13.40;99.90
27697;DHT22;15105;56.514;21.002;2022-07-17T02:17:41;13.30;99.90
27697;DHT22;15105;56.514;21.002;2022-07-17T02:20:12;13.30;99.90
27697;DHT22;15105;56.514;21.002;2022-07-17T02:22:40;13.30;99.90
27697;DHT22;15105;56.514;21.002;2022-07-17T02:25:13;13.30;99.90
27697;DHT22;15105;56.514;21.002;2022-07-17T02:27:41;13.40;99.90
27697;DHT22;15105;56.514;21.002;2022-07-17T02:30:18;13.40;99.90
27697;DHT22;15105;56.514;21.002;2022-07-17T02:32:45;13.40;99.90
27697;DHT22;15105;56.514;21.002;2022-07-17T02:35:13;13.40;99.90
27697;DHT22;15105;56.514;21.002;2022-07-17T02:37:41;13.50;99.90
27697;DHT22;15105;56.514;21.002;2022-07-17T02:40:10;13.50;99.90
27697;DHT22;15105;56.514;21.002;2022-07-17T02:42:37;13.60;99.90
27697;DHT22;15105;56.514;21.002;2022-07-17T02:45:05;13.60;99.90
27697;DHT22;15105;56.514;21.002;2022-07-17T02:47:34;13.70;99.90
27697;DHT22;15105;56.514;21.002;2022-07-17T02:50:04;13.90;99.90
27697;DHT22;15105;56.514;21.002;2022-07-17T02:52:33;14.00;99.90
27697;DHT22;15105;56.514;21.002;2022-07-17T02:55:00;14.10;99.90
27697;DHT22;15105;56.514;21.002;2022-07-17T02:57:27;14.20;99.90
27697;DHT22;15105;56.514;21.002;2022-07-17T02:59:54;14.30;99.90
27697;DHT22;15105;56.514;21.002;2022-07-17T03:02:21;14.30;99.90
27697;DHT22;15105;56.514;21.002;2022-07-17T03:04:48;14.40;99.90
27697;DHT22;15105;56.514;21.002;2022-07-17T03:07:16;14.40;99.90
27697;DHT22;15105;56.514;21.002;2022-07-17T03:09:42;14.40;99.90
27697;DHT22;15105;56.514;21.002;2022-07-17T03:12:10;14.40;99.90
27697;DHT22;15105;56.514;21.002;2022-07-17T03:14:37;14.50;99.90
27697;DHT22;15105;56.514;21.002;2022-07-17T03:17:04;14.50;99.90
27697;DHT22;15105;56.514;21.002;2022-07-17T03:19:31;14.60;99.90
27697;DHT22;15105;56.514;21.002;2022-07-17T03:21:58;14.60;99.90
27697;DHT22;15105;56.514;21.002;2022-07-17T03:24:25;14.70;99.90
27697;DHT22;15105;56.514;21.002;2022-07-17T03:26:52;14.80;99.90
27697;DHT22;15105;56.514;21.002;2022-07-17T03:29:19;14.90;99.90
27697;DHT22;15105;56.514;21.002;2022-07-17T03:31:47;15.10;99.90
27697;DHT22;15105;56.514;21.002;2022-07-17T03:34:15;15.20;99.90
27697;DHT22;15105;56.514;21.002;2022-07-17T03:36:42;15.20;99.90
27697;DHT22;15105;56.514;21.002;2022-07-17T03:39:09;15.30;99.90
27697;DHT22;15105;56.514;21.002;2022-07-17T03:41:37;15.40;99.90
27697;DHT22;15105;56.514;21.002;2022-07-17T03:44:04;15.40;99.90
27697;DHT22;15105;56.514;21.002;2022-07-17T03:46:31;15.50;99.90
27697;DHT22;15105;56.514;21.002;2022-07-17T03:48:58;15.60;99.90
27697;DHT22;15105;56.514;21.002;2022-07-17T03:51:26;15.70;99.90
27697;DHT22;15105;56.514;21.002;2022-07-17T03:53:53;15.70;99.90
27697;DHT22;15105;56.514;21.002;2022-07-17T03:56:20;15.80;99.90
27697;DHT22;15105;56.514;21.002;2022-07-17T03:58:48;15.80;99.90
27697;DHT22;15105;56.514;21.002;2022-07-17T04:01:16;15.90;99.90
27697;DHT22;15105;56.514;21.002;2022-07-17T04:03:43;15.90;99.90
27697;DHT22;15105;56.514;21.002;2022-07-17T04:06:10;16.00;99.90
27697;DHT22;15105;56.514;21.002;2022-07-17T04:08:37;16.10;99.90
27697;DHT22;15105;56.514;21.002;2022-07-17T04:11:04;16.20;99.90
27697;DHT22;15105;56.514;21.002;2022-07-17T04:13:36;16.40;99.90
27697;DHT22;15105;56.514;21.002;2022-07-17T04:16:04;17.00;99.90
27697;DHT22;15105;56.514;21.002;2022-07-17T04:18:33;18.00;99.90
27697;DHT22;15105;56.514;21.002;2022-07-17T04:21:04;18.70;99.90
27697;DHT22;15105;56.514;21.002;2022-07-17T04:23:32;18.40;99.90
27697;DHT22;15105;56.514;21.002;2022-07-17T04:25:59;18.00;99.90
27697;DHT22;15105;56.514;21.002;2022-07-17T04:28:26;17.60;99.90
27697;DHT22;15105;56.514;21.002;2022-07-17T04:30:53;17.20;99.90
27697;DHT22;15105;56.514;21.002;2022-07-17T04:33:20;16.80;99.90
27697;DHT22;15105;56.514;21.002;2022-07-17T04:35:47;16.50;99.90
27697;DHT22;15105;56.514;21.002;2022-07-17T04:38:15;16.30;99.90
27697;DHT22;15105;56.514;21.002;2022-07-17T04:40:42;16.20;99.90
27697;DHT22;15105;56.514;21.002;2022-07-17T04:43:12;16.10;99.90
27697;DHT22;15105;56.514;21.002;2022-07-17T04:45:39;16.10;99.90
27697;DHT22;15105;56.514;21.002;2022-07-17T04:48:06;16.00;99.90
27697;DHT22;15105;56.514;21.002;2022-07-17T04:50:38;16.00;99.90
27697;DHT22;15105;56.514;21.002;2022-07-17T04:53:06;15.90;99.90
27697;DHT22;15105;56.514;21.002;2022-07-17T04:55:32;16.00;99.90
27697;DHT22;15105;56.514;21.002;2022-07-17T04:58:00;16.00;99.90
27697;DHT22;15105;56.514;21.002;2022-07-17T05:00:27;15.90;99.90
27697;DHT22;15105;56.514;21.002;2022-07-17T05:02:54;15.90;99.90
27697;DHT22;15105;56.514;21.002;2022-07-17T05:05:21;15.90;99.90
27697;DHT22;15105;56.514;21.002;2022-07-17T05:07:48;15.90;99.90
27697;DHT22;15105;56.514;21.002;2022-07-17T05:10:15;15.90;99.90
27697;DHT22;15105;56.514;21.002;2022-07-17T05:12:42;16.00;99.90
27697;DHT22;15105;56.514;21.002;2022-07-17T05:15:13;16.10;99.90
27697;DHT22;15105;56.514;21.002;2022-07-17T05:17:39;16.40;99.90
27697;DHT22;15105;56.514;21.002;2022-07-17T05:20:07;16.60;99.90
27697;DHT22;15105;56.514;21.002;2022-07-17T05:22:54;16.50;99.90
27697;DHT22;15105;56.514;21.002;2022-07-17T05:25:22;16.30;99.90
27697;DHT22;15105;56.514;21.002;2022-07-17T05:27:49;16.20;99.90
27697;DHT22;15105;56.514;21.002;2022-07-17T05:30:16;16.10;99.90
27697;DHT22;15105;56.514;21.002;2022-07-17T05:32:43;16.00;99.90
27697;DHT22;15105;56.514;21.002;2022-07-17T05:35:10;15.90;99.90
27697;DHT22;15105;56.514;21.002;2022-07-17T05:37:37;15.90;99.90
27697;DHT22;15105;56.514;21.002;2022-07-17T05:40:05;15.90;99.90
27697;DHT22;15105;56.514;21.002;2022-07-17T05:42:32;15.90;99.90
27697;DHT22;15105;56.514;21.002;2022-07-17T05:45:02;16.10;99.90
27697;DHT22;15105;56.514;21.002;2022-07-17T05:47:29;16.10;99.90
27697;DHT22;15105;56.514;21.002;2022-07-17T05:49:56;16.20;99.90
27697;DHT22;15105;56.514;21.002;2022-07-17T05:52:23;16.30;99.90
27697;DHT22;15105;56.514;21.002;2022-07-17T05:54:51;16.30;99.90
27697;DHT22;15105;56.514;21.002;2022-07-17T05:57:18;16.30;99.90
27697;DHT22;15105;56.514;21.002;2022-07-17T05:59:45;16.30;99.90
27697;DHT22;15105;56.514;21.002;2022-07-17T06:02:13;16.30;99.90
27697;DHT22;15105;56.514;21.002;2022-07-17T06:04:40;16.40;99.90
27697;DHT22;15105;56.514;21.002;2022-07-17T06:07:07;16.50;99.90
27697;DHT22;15105;56.514;21.002;2022-07-17T06:09:34;16.60;99.90
27697;DHT22;15105;56.514;21.002;2022-07-17T06:12:01;16.70;99.90
27697;DHT22;15105;56.514;21.002;2022-07-17T06:14:28;16.90;99.90
27697;DHT22;15105;56.514;21.002;2022-07-17T06:16:55;17.10;99.90
27697;DHT22;15105;56.514;21.002;2022-07-17T06:19:22;17.30;99.90
27697;DHT22;15105;56.514;21.002;2022-07-17T06:21:49;17.60;99.90
27697;DHT22;15105;56.514;21.002;2022-07-17T06:24:16;17.80;99.90
27697;DHT22;15105;56.514;21.002;2022-07-17T06:26:43;18.10;99.90
27697;DHT22;15105;56.514;21.002;2022-07-17T06:29:10;18.20;99.90
27697;DHT22;15105;56.514;21.002;2022-07-17T06:31:37;18.30;99.90
27697;DHT22;15105;56.514;21.002;2022-07-17T06:34:04;18.50;99.90
27697;DHT22;15105;56.514;21.002;2022-07-17T06:36:32;18.50;99.90
27697;DHT22;15105;56.514;21.002;2022-07-17T06:38:59;18.40;99.90
27697;DHT22;15105;56.514;21.002;2022-07-17T06:41:26;18.30;99.90
27697;DHT22;15105;56.514;21.002;2022-07-17T06:43:53;18.10;99.90
27697;DHT22;15105;56.514;21.002;2022-07-17T06:46:20;17.90;99.90
27697;DHT22;15105;56.514;21.002;2022-07-17T06:48:47;17.80;99.90
27697;DHT22;15105;56.514;21.002;2022-07-17T06:51:18;17.90;99.90
27697;DHT22;15105;56.514;21.002;2022-07-17T06:53:45;17.80;99.90
27697;DHT22;15105;56.514;21.002;2022-07-17T06:56:12;17.70;99.90
27697;DHT22;15105;56.514;21.002;2022-07-17T06:58:39;17.70;99.90
27697;DHT22;15105;56.514;21.002;2022-07-17T07:01:06;17.70;99.90
27697;DHT22;15105;56.514;21.002;2022-07-17T07:03:34;17.70;99.90
27697;DHT22;15105;56.514;21.002;2022-07-17T07:06:01;17.80;99.90
27697;DHT22;15105;56.514;21.002;2022-07-17T07:08:29;17.90;99.90
27697;DHT22;15105;56.514;21.002;2022-07-17T07:10:56;18.00;99.90
27697;DHT22;15105;56.514;21.002;2022-07-17T07:13:24;18.10;99.90
27697;DHT22;15105;56.514;21.002;2022-07-17T07:15:51;18.20;99.90
27697;DHT22;15105;56.514;21.002;2022-07-17T07:18:18;18.50;99.90
27697;DHT22;15105;56.514;21.002;2022-07-17T07:20:45;18.50;99.90
27697;DHT22;15105;56.514;21.002;2022-07-17T07:23:12;18.40;99.90
27697;DHT22;15105;56.514;21.002;2022-07-17T07:25:39;18.30;99.90
27697;DHT22;15105;56.514;21.002;2022-07-17T07:28:06;18.10;99.90
27697;DHT22;15105;56.514;21.002;2022-07-17T07:30:33;17.90;99.90
27697;DHT22;15105;56.514;21.002;2022-07-17T07:33:01;17.90;99.90
27697;DHT22;15105;56.514;21.002;2022-07-17T07:35:28;17.80;99.90
27697;DHT22;15105;56.514;21.002;2022-07-17T07:37:55;17.90;99.90
27697;DHT22;15105;56.514;21.002;2022-07-17T07:40:22;17.80;99.90
27697;DHT22;15105;56.514;21.002;2022-07-17T07:42:49;17.90;99.90
27697;DHT22;15105;56.514;21.002;2022-07-17T07:45:16;18.00;99.90
27697;DHT22;15105;56.514;21.002;2022-07-17T07:47:46;18.10;99.90
27697;DHT22;15105;56.514;21.002;2022-07-17T07:50:14;18.30;99.90
27697;DHT22;15105;56.514;21.002;2022-07-17T07:52:42;18.40;99.90
27697;DHT22;15105;56.514;21.002;2022-07-17T07:55:11;18.60;99.90
27697;DHT22;15105;56.514;21.002;2022-07-17T07:57:46;18.80;99.90
27697;DHT22;15105;56.514;21.002;2022-07-17T08:00:15;19.00;99.90
27697;DHT22;15105;56.514;21.002;2022-07-17T08:02:43;19.00;99.90
27697;DHT22;15105;56.514;21.002;2022-07-17T08:05:10;19.10;99.90
27697;DHT22;15105;56.514;21.002;2022-07-17T08:07:38;19.30;99.90
27697;DHT22;15105;56.514;21.002;2022-07-17T08:10:05;19.40;99.90
27697;DHT22;15105;56.514;21.002;2022-07-17T08:12:32;19.40;99.90
27697;DHT22;15105;56.514;21.002;2022-07-17T08:15:16;19.40;99.90
27697;DHT22;15105;56.514;21.002;2022-07-17T08:17:45;19.30;99.90
27697;DHT22;15105;56.514;21.002;2022-07-17T08:20:13;19.20;99.90
27697;DHT22;15105;56.514;21.002;2022-07-17T08:22:42;19.20;99.90
27697;DHT22;15105;56.514;21.002;2022-07-17T08:25:29;19.20;99.90
27697;DHT22;15105;56.514;21.002;2022-07-17T08:27:57;19.40;99.90
27697;DHT22;15105;56.514;21.002;2022-07-17T08:30:24;19.50;99.90
27697;DHT22;15105;56.514;21.002;2022-07-17T08:32:51;19.60;99.90
27697;DHT22;15105;56.514;21.002;2022-07-17T08:35:18;19.70;99.90
27697;DHT22;15105;56.514;21.002;2022-07-17T08:37:50;19.70;99.90
27697;DHT22;15105;56.514;21.002;2022-07-17T08:40:26;19.70;99.90
27697;DHT22;15105;56.514;21.002;2022-07-17T08:42:56;19.70;99.90
27697;DHT22;15105;56.514;21.002;2022-07-17T08:45:24;19.70;99.90
27697;DHT22;15105;56.514;21.002;2022-07-17T08:47:53;19.70;99.90
27697;DHT22;15105;56.514;21.002;2022-07-17T08:50:25;19.70;99.90
27697;DHT22;15105;56.514;21.002;2022-07-17T08:52:53;19.80;99.90
27697;DHT22;15105;56.514;21.002;2022-07-17T08:55:20;19.80;99.90
27697;DHT22;15105;56.514;21.002;2022-07-17T08:57:48;19.90;99.90
27697;DHT22;15105;56.514;21.002;2022-07-17T09:00:18;20.00;99.90
27697;DHT22;15105;56.514;21.002;2022-07-17T09:05:24;20.20;99.90
27697;DHT22;15105;56.514;21.002;2022-07-17T09:07:51;20.00;99.90
27697;DHT22;15105;56.514;21.002;2022-07-17T09:10:18;19.90;99.90
27697;DHT22;15105;56.514;21.002;2022-07-17T09:12:55;20.00;99.90
27697;DHT22;15105;56.514;21.002;2022-07-17T09:15:22;20.20;99.90
27697;DHT22;15105;56.514;21.002;2022-07-17T09:17:55;20.20;99.90
27697;DHT22;15105;56.514;21.002;2022-07-17T09:20:23;20.30;99.90
27697;DHT22;15105;56.514;21.002;2022-07-17T09:23:02;20.20;99.90
27697;DHT22;15105;56.514;21.002;2022-07-17T09:25:40;20.30;99.90
27697;DHT22;15105;56.514;21.002;2022-07-17T09:28:09;20.20;99.90
27697;DHT22;15105;56.514;21.002;2022-07-17T09:30:39;20.20;99.90
27697;DHT22;15105;56.514;21.002;2022-07-17T09:33:08;20.10;99.90
27697;DHT22;15105;56.514;21.002;2022-07-17T09:35:55;20.10;99.90
27697;DHT22;15105;56.514;21.002;2022-07-17T09:38:37;20.20;99.90
27697;DHT22;15105;56.514;21.002;2022-07-17T09:41:15;20.20;99.90
27697;DHT22;15105;56.514;21.002;2022-07-17T09:43:50;20.20;99.90
27697;DHT22;15105;56.514;21.002;2022-07-17T09:46:25;20.20;99.90
27697;DHT22;15105;56.514;21.002;2022-07-17T09:48:55;20.40;99.90
27697;DHT22;15105;56.514;21.002;2022-07-17T09:51:31;20.40;99.90
27697;DHT22;15105;56.514;21.002;2022-07-17T09:54:01;20.50;99.90
27697;DHT22;15105;56.514;21.002;2022-07-17T09:56:30;20.60;99.90
27697;DHT22;15105;56.514;21.002;2022-07-17T09:59:06;20.40;99.90
27697;DHT22;15105;56.514;21.002;2022-07-17T10:01:35;20.30;99.90
27697;DHT22;15105;56.514;21.002;2022-07-17T10:04:03;20.50;99.90
27697;DHT22;15105;56.514;21.002;2022-07-17T10:06:31;20.80;99.90
27697;DHT22;15105;56.514;21.002;2022-07-17T10:09:00;20.90;99.90
27697;DHT22;15105;56.514;21.002;2022-07-17T10:11:29;20.80;99.90
27697;DHT22;15105;56.514;21.002;2022-07-17T10:14:03;20.60;99.90
27697;DHT22;15105;56.514;21.002;2022-07-17T10:16:32;20.60;99.90
27697;DHT22;15105;56.514;21.002;2022-07-17T10:19:01;20.60;99.90
27697;DHT22;15105;56.514;21.002;2022-07-17T10:21:31;20.50;99.90
27697;DHT22;15105;56.514;21.002;2022-07-17T10:28:59;20.60;99.90
27697;DHT22;15105;56.514;21.002;2022-07-17T10:31:28;20.70;99.90
27697;DHT22;15105;56.514;21.002;2022-07-17T10:34:04;20.70;99.90
27697;DHT22;15105;56.514;21.002;2022-07-17T10:36:34;20.60;99.90
27697;DHT22;15105;56.514;21.002;2022-07-17T10:39:17;20.70;99.90
27697;DHT22;15105;56.514;21.002;2022-07-17T10:41:57;20.80;99.90
27697;DHT22;15105;56.514;21.002;2022-07-17T10:44:26;20.60;99.90
27697;DHT22;15105;56.514;21.002;2022-07-17T10:46:56;20.50;99.90
27697;DHT22;15105;56.514;21.002;2022-07-17T10:49:24;20.60;99.90
27697;DHT22;15105;56.514;21.002;2022-07-17T10:51:52;20.60;99.90
27697;DHT22;15105;56.514;21.002;2022-07-17T10:54:20;20.70;99.90
27697;DHT22;15105;56.514;21.002;2022-07-17T10:57:01;20.70;99.90
27697;DHT22;15105;56.514;21.002;2022-07-17T10:59:29;20.60;99.90
27697;DHT22;15105;56.514;21.002;2022-07-17T11:01:57;20.80;99.90
27697;DHT22;15105;56.514;21.002;2022-07-17T11:04:36;20.80;99.90
27697;DHT22;15105;56.514;21.002;2022-07-17T11:07:10;21.00;99.90
27697;DHT22;15105;56.514;21.002;2022-07-17T11:09:47;21.00;99.90
27697;DHT22;15105;56.514;21.002;2022-07-17T11:12:14;21.00;99.90
27697;DHT22;15105;56.514;21.002;2022-07-17T11:14:44;21.00;99.90
27697;DHT22;15105;56.514;21.002;2022-07-17T11:17:11;20.90;99.90
27697;DHT22;15105;56.514;21.002;2022-07-17T11:19:43;20.90;99.90
27697;DHT22;15105;56.514;21.002;2022-07-17T11:22:11;20.90;99.90
27697;DHT22;15105;56.514;21.002;2022-07-17T11:24:44;20.90;99.90
27697;DHT22;15105;56.514;21.002;2022-07-17T11:27:29;20.80;99.90
27697;DHT22;15105;56.514;21.002;2022-07-17T11:29:58;20.70;99.90
27697;DHT22;15105;56.514;21.002;2022-07-17T11:32:38;20.90;99.90
27697;DHT22;15105;56.514;21.002;2022-07-17T11:35:19;21.00;99.90
27697;DHT22;15105;56.514;21.002;2022-07-17T11:38:07;21.00;99.90
27697;DHT22;15105;56.514;21.002;2022-07-17T11:40:34;20.80;99.90
27697;DHT22;15105;56.514;21.002;2022-07-17T11:43:02;20.80;99.90
27697;DHT22;15105;56.514;21.002;2022-07-17T11:45:31;20.80;99.90
27697;DHT22;15105;56.514;21.002;2022-07-17T11:48:02;21.00;99.90
27697;DHT22;15105;56.514;21.002;2022-07-17T11:50:29;21.10;99.90
27697;DHT22;15105;56.514;21.002;2022-07-17T11:53:01;21.10;99.90
27697;DHT22;15105;56.514;21.002;2022-07-17T11:55:37;20.90;99.90
27697;DHT22;15105;56.514;21.002;2022-07-17T11:58:05;20.90;99.90
27697;DHT22;15105;56.514;21.002;2022-07-17T12:00:33;20.80;99.90
27697;DHT22;15105;56.514;21.002;2022-07-17T12:03:02;20.70;99.90
27697;DHT22;15105;56.514;21.002;2022-07-17T12:05:33;20.60;99.90
27697;DHT22;15105;56.514;21.002;2022-07-17T12:08:00;20.70;99.90
27697;DHT22;15105;56.514;21.002;2022-07-17T12:10:29;20.70;99.90
27697;DHT22;15105;56.514;21.002;2022-07-17T12:13:02;20.70;99.90
27697;DHT22;15105;56.514;21.002;2022-07-17T12:15:48;20.70;99.90
27697;DHT22;15105;56.514;21.002;2022-07-17T12:18:24;20.40;99.90
27697;DHT22;15105;56.514;21.002;2022-07-17T12:20:55;20.00;99.90
27697;DHT22;15105;56.514;21.002;2022-07-17T12:23:33;20.10;99.90
27697;DHT22;15105;56.514;21.002;2022-07-17T12:26:14;20.20;99.90
27697;DHT22;15105;56.514;21.002;2022-07-17T12:28:46;20.40;99.90
27697;DHT22;15105;56.514;21.002;2022-07-17T12:31:13;20.60;99.90
27697;DHT22;15105;56.514;21.002;2022-07-17T12:33:42;20.80;99.90
27697;DHT22;15105;56.514;21.002;2022-07-17T12:36:10;20.80;99.90
27697;DHT22;15105;56.514;21.002;2022-07-17T12:38:37;21.00;99.90
27697;DHT22;15105;56.514;21.002;2022-07-17T12:41:05;21.10;99.90
27697;DHT22;15105;56.514;21.002;2022-07-17T12:43:32;21.10;99.90
27697;DHT22;15105;56.514;21.002;2022-07-17T12:46:00;21.10;99.90
27697;DHT22;15105;56.514;21.002;2022-07-17T12:48:37;21.10;99.90
27697;DHT22;15105;56.514;21.002;2022-07-17T12:51:11;21.20;99.90
27697;DHT22;15105;56.514;21.002;2022-07-17T12:53:43;21.20;99.90
27697;DHT22;15105;56.514;21.002;2022-07-17T12:56:10;21.30;99.90
27697;DHT22;15105;56.514;21.002;2022-07-17T12:58:38;21.30;99.90
27697;DHT22;15105;56.514;21.002;2022-07-17T13:01:05;21.30;99.90
27697;DHT22;15105;56.514;21.002;2022-07-17T13:03:33;21.20;99.90
27697;DHT22;15105;56.514;21.002;2022-07-17T13:06:01;21.10;99.90
27697;DHT22;15105;56.514;21.002;2022-07-17T13:08:29;21.00;99.90
27697;DHT22;15105;56.514;21.002;2022-07-17T13:10:57;21.00;99.90
27697;DHT22;15105;56.514;21.002;2022-07-17T13:13:26;21.10;99.90
27697;DHT22;15105;56.514;21.002;2022-07-17T13:15:54;21.20;99.90
27697;DHT22;15105;56.514;21.002;2022-07-17T13:18:22;21.40;99.90
27697;DHT22;15105;56.514;21.002;2022-07-17T13:20:49;21.30;99.90
27697;DHT22;15105;56.514;21.002;2022-07-17T13:23:17;21.10;99.90
27697;DHT22;15105;56.514;21.002;2022-07-17T13:25:44;21.30;99.90
27697;DHT22;15105;56.514;21.002;2022-07-17T13:28:11;21.20;99.90
27697;DHT22;15105;56.514;21.002;2022-07-17T13:30:39;21.20;99.90
27697;DHT22;15105;56.514;21.002;2022-07-17T13:33:06;21.10;99.90
27697;DHT22;15105;56.514;21.002;2022-07-17T13:35:33;20.80;99.90
27697;DHT22;15105;56.514;21.002;2022-07-17T13:38:00;20.70;99.90
27697;DHT22;15105;56.514;21.002;2022-07-17T13:40:30;20.60;99.90
27697;DHT22;15105;56.514;21.002;2022-07-17T13:42:59;20.80;99.90
27697;DHT22;15105;56.514;21.002;2022-07-17T13:45:26;20.60;99.90
27697;DHT22;15105;56.514;21.002;2022-07-17T13:47:54;20.40;99.90
27697;DHT22;15105;56.514;21.002;2022-07-17T13:50:21;20.10;99.90
27697;DHT22;15105;56.514;21.002;2022-07-17T13:52:48;20.10;99.90
27697;DHT22;15105;56.514;21.002;2022-07-17T13:55:16;20.30;99.90
27697;DHT22;15105;56.514;21.002;2022-07-17T13:58:03;20.40;99.90
27697;DHT22;15105;56.514;21.002;2022-07-17T14:00:30;20.30;99.90
27697;DHT22;15105;56.514;21.002;2022-07-17T14:02:57;20.20;99.90
27697;DHT22;15105;56.514;21.002;2022-07-17T14:05:24;20.40;99.90
27697;DHT22;15105;56.514;21.002;2022-07-17T14:07:51;20.40;99.90
27697;DHT22;15105;56.514;21.002;2022-07-17T14:10:18;20.30;99.90
27697;DHT22;15105;56.514;21.002;2022-07-17T14:12:45;20.20;99.90
27697;DHT22;15105;56.514;21.002;2022-07-17T14:15:13;20.20;99.90
27697;DHT22;15105;56.514;21.002;2022-07-17T14:17:40;20.40;99.90
27697;DHT22;15105;56.514;21.002;2022-07-17T14:20:07;20.40;99.90
27697;DHT22;15105;56.514;21.002;2022-07-17T14:22:34;20.40;99.90
27697;DHT22;15105;56.514;21.002;2022-07-17T14:25:01;20.30;99.90
27697;DHT22;15105;56.514;21.002;2022-07-17T14:27:28;20.20;99.90
27697;DHT22;15105;56.514;21.002;2022-07-17T14:29:55;20.30;99.90
27697;DHT22;15105;56.514;21.002;2022-07-17T14:32:22;20.30;99.90
27697;DHT22;15105;56.514;21.002;2022-07-17T14:34:51;20.40;99.90
27697;DHT22;15105;56.514;21.002;2022-07-17T14:37:19;20.40;99.90
27697;DHT22;15105;56.514;21.002;2022-07-17T14:39:46;20.30;99.90
27697;DHT22;15105;56.514;21.002;2022-07-17T14:42:14;20.30;99.90
27697;DHT22;15105;56.514;21.002;2022-07-17T14:44:41;20.40;99.90
27697;DHT22;15105;56.514;21.002;2022-07-17T14:47:08;20.30;99.90
27697;DHT22;15105;56.514;21.002;2022-07-17T14:49:36;20.30;99.90
27697;DHT22;15105;56.514;21.002;2022-07-17T14:52:03;20.20;99.90
27697;DHT22;15105;56.514;21.002;2022-07-17T14:54:30;20.10;99.90
27697;DHT22;15105;56.514;21.002;2022-07-17T14:57:00;20.20;99.90
27697;DHT22;15105;56.514;21.002;2022-07-17T14:59:27;20.30;99.90
27697;DHT22;15105;56.514;21.002;2022-07-17T15:01:54;20.20;99.90
27697;DHT22;15105;56.514;21.002;2022-07-17T15:04:22;20.10;99.90
27697;DHT22;15105;56.514;21.002;2022-07-17T15:06:50;20.10;99.90
27697;DHT22;15105;56.514;21.002;2022-07-17T15:09:17;20.10;99.90
27697;DHT22;15105;56.514;21.002;2022-07-17T15:11:45;20.00;99.90
27697;DHT22;15105;56.514;21.002;2022-07-17T15:14:12;20.00;99.90
27697;DHT22;15105;56.514;21.002;2022-07-17T15:16:40;20.00;99.90
27697;DHT22;15105;56.514;21.002;2022-07-17T15:19:07;19.80;99.90
27697;DHT22;15105;56.514;21.002;2022-07-17T15:21:34;19.60;99.90
27697;DHT22;15105;56.514;21.002;2022-07-17T15:24:20;19.50;99.90
27697;DHT22;15105;56.514;21.002;2022-07-17T15:26:48;19.40;99.90
27697;DHT22;15105;56.514;21.002;2022-07-17T15:29:16;19.30;99.90
27697;DHT22;15105;56.514;21.002;2022-07-17T15:31:43;19.30;99.90
27697;DHT22;15105;56.514;21.002;2022-07-17T15:34:11;19.30;99.90